Time;durP1;ratioP1;P1;durP2;ratioP2;P2;SDS_P1;SDS_P2;PMS_P1;PMS_P2;Temp;Humidity;BMP_temperature;BMP_pressure;BME280_temperature;BME280_humidity;BME280_pressure;Samples;Min_cycle;Max_cycle;Signal;HPM_P1;HPM_P2
2022/05/05 00:02:15;;;;;;;1.58;1.00;;;24.90;46.40;;;;;;5017547;28;20062;-64
2022/05/05 00:04:40;;;;;;;1.45;0.90;;;24.90;46.40;;;;;;5016518;28;20037;-66
2022/05/05 00:07:06;;;;;;;2.92;1.00;;;24.90;46.40;;;;;;5022226;28;20469;-64
2022/05/05 00:09:32;;;;;;;2.00;1.20;;;24.90;46.40;;;;;;5022038;28;20079;-64
2022/05/05 00:14:44;;;;;;;2.40;1.02;;;24.90;46.40;;;;;;5022627;28;20117;-65
2022/05/05 00:17:11;;;;;;;1.95;1.15;;;24.90;46.40;;;;;;5022028;28;20036;-63
2022/05/05 00:19:41;;;;;;;2.55;1.25;;;24.80;46.40;;;;;;5024619;28;20067;-62
2022/05/05 00:22:07;;;;;;;1.85;1.05;;;24.80;46.40;;;;;;5023203;28;20033;-62
2022/05/05 00:24:33;;;;;;;1.30;0.90;;;24.80;46.40;;;;;;5022542;28;20029;-65
2022/05/05 00:26:59;;;;;;;2.30;1.17;;;24.80;46.40;;;;;;5022478;28;21030;-64
2022/05/05 00:29:25;;;;;;;1.63;1.00;;;24.80;46.50;;;;;;5023249;28;20025;-64
2022/05/05 00:31:50;;;;;;;2.30;0.88;;;24.80;46.40;;;;;;5023790;28;20553;-64
2022/05/05 00:34:17;;;;;;;1.70;0.93;;;24.80;46.40;;;;;;5023509;28;20057;-64
2022/05/05 00:36:43;;;;;;;1.85;1.00;;;24.80;46.50;;;;;;5023709;28;20480;-67
2022/05/05 00:39:11;;;;;;;1.85;1.15;;;24.80;46.50;;;;;;5023440;28;20033;-64
2022/05/05 00:41:39;;;;;;;1.65;1.00;;;24.70;46.40;;;;;;5021389;28;20120;-64
2022/05/05 00:44:06;;;;;;;1.73;0.90;;;24.70;46.50;;;;;;5025028;28;20103;-63
2022/05/05 00:46:36;;;;;;;2.58;1.20;;;24.70;46.50;;;;;;5021165;28;20056;-64
2022/05/05 00:49:02;;;;;;;3.28;1.08;;;24.70;46.50;;;;;;5020140;28;20041;-65
2022/05/05 00:51:29;;;;;;;1.58;0.90;;;24.70;46.50;;;;;;5024643;28;20542;-65
2022/05/05 00:53:55;;;;;;;1.85;1.00;;;24.70;46.50;;;;;;5025171;28;20365;-61
2022/05/05 00:56:21;;;;;;;2.38;1.10;;;24.70;46.50;;;;;;5022146;28;20033;-65
2022/05/05 00:58:51;;;;;;;1.02;0.90;;;24.70;46.50;;;;;;5021621;28;20056;-67
2022/05/05 01:01:20;;;;;;;;;;;24.70;46.40;;;;;;5019924;28;20056;-64
2022/05/05 01:03:46;;;;;;;;;;;24.70;46.50;;;;;;5014978;28;19920;-63
2022/05/05 01:06:14;;;;;;;1.85;1.00;;;24.70;46.50;;;;;;5018678;28;19921;-64
2022/05/05 01:08:40;;;;;;;1.33;0.90;;;24.70;46.40;;;;;;5021887;28;20028;-62
2022/05/05 01:11:06;;;;;;;1.63;0.80;;;24.60;46.40;;;;;;5021528;28;20513;-68
2022/05/05 01:13:32;;;;;;;1.70;0.88;;;24.60;46.40;;;;;;5022735;28;20151;-65
2022/05/05 01:15:59;;;;;;;1.30;0.95;;;24.60;46.40;;;;;;5020329;28;21521;-64
2022/05/05 01:18:25;;;;;;;1.20;0.80;;;24.60;46.40;;;;;;5016946;28;20876;-63
2022/05/05 01:20:55;;;;;;;1.73;0.93;;;24.60;46.40;;;;;;5020027;28;20117;-64
2022/05/05 01:23:21;;;;;;;1.42;0.88;;;24.60;46.40;;;;;;5021494;28;20021;-64
2022/05/05 01:28:34;;;;;;;1.70;1.00;;;24.60;46.40;;;;;;5019484;28;21059;-66
2022/05/05 01:31:02;;;;;;;3.25;1.10;;;24.60;46.40;;;;;;5022400;28;20126;-66
2022/05/05 01:33:30;;;;;;;1.58;0.85;;;24.60;46.40;;;;;;5019494;28;20040;-63
2022/05/05 01:36:00;;;;;;;1.63;0.95;;;24.60;46.40;;;;;;5020865;28;20030;-63
2022/05/05 01:38:36;;;;;;;1.42;0.90;;;24.50;46.30;;;;;;5021046;28;20086;-65
2022/05/05 01:41:13;;;;;;;1.45;0.85;;;24.50;46.30;;;;;;5020356;28;20037;-70
2022/05/05 01:43:41;;;;;;;1.35;0.98;;;24.50;46.40;;;;;;5020163;28;20033;-66
2022/05/05 01:46:07;;;;;;;1.50;0.93;;;24.50;46.40;;;;;;5018665;28;20051;-68
2022/05/05 01:48:33;;;;;;;1.48;0.80;;;24.50;46.40;;;;;;5018235;28;20032;-64
2022/05/05 01:50:59;;;;;;;2.28;0.90;;;24.50;46.40;;;;;;5019751;28;20401;-66
2022/05/05 01:53:25;;;;;;;1.35;0.90;;;24.50;46.40;;;;;;5018233;28;20037;-62
2022/05/05 01:55:51;;;;;;;1.08;0.80;;;24.50;46.40;;;;;;5022360;28;20040;-65
2022/05/05 01:58:17;;;;;;;1.45;1.02;;;24.50;46.40;;;;;;5012195;28;21209;-64
2022/05/05 02:00:43;;;;;;;1.38;0.80;;;24.50;46.40;;;;;;5019586;28;20049;-67
2022/05/05 02:03:14;;;;;;;2.10;1.30;;;24.50;46.30;;;;;;5013365;28;20049;-64
2022/05/05 02:05:45;;;;;;;1.38;0.85;;;24.50;46.30;;;;;;5018554;28;20064;-63
2022/05/05 02:08:12;;;;;;;1.67;0.80;;;24.50;46.30;;;;;;5020062;28;20057;-62
2022/05/05 02:10:38;;;;;;;1.63;0.70;;;24.50;46.30;;;;;;5017924;28;20488;-64
2022/05/05 02:13:06;;;;;;;1.60;0.77;;;24.50;46.30;;;;;;5016875;28;20129;-65
2022/05/05 02:15:33;;;;;;;1.42;0.85;;;24.50;46.30;;;;;;5016413;28;20060;-61
2022/05/05 02:18:07;;;;;;;1.60;0.90;;;24.40;46.30;;;;;;5013695;28;20128;-64
2022/05/05 02:20:33;;;;;;;1.67;0.90;;;24.50;46.30;;;;;;5019366;28;20120;-63
2022/05/05 02:22:59;;;;;;;1.25;0.85;;;24.50;46.30;;;;;;5018842;28;20112;-62
2022/05/05 02:25:24;;;;;;;1.30;0.90;;;24.40;46.30;;;;;;5020332;28;20041;-63
2022/05/05 02:27:52;;;;;;;1.25;0.70;;;24.40;46.30;;;;;;5017147;28;20180;-61
2022/05/05 02:30:20;;;;;;;1.48;0.80;;;24.50;46.30;;;;;;5021384;28;20024;-68
2022/05/05 02:32:47;;;;;;;1.73;0.88;;;24.40;46.30;;;;;;5019238;28;20026;-62
2022/05/05 02:35:13;;;;;;;1.02;0.70;;;24.40;46.20;;;;;;5018910;28;20061;-64
2022/05/05 02:40:24;;;;;;;1.52;0.90;;;24.40;46.30;;;;;;5020614;28;20113;-64
2022/05/05 02:42:49;;;;;;;1.42;0.85;;;24.40;46.30;;;;;;5019112;28;20142;-64
2022/05/05 02:45:15;;;;;;;1.30;0.82;;;24.40;46.20;;;;;;5018948;28;20029;-65
2022/05/05 02:47:40;;;;;;;1.25;0.90;;;24.40;46.30;;;;;;5015795;28;20111;-64
2022/05/05 02:50:06;;;;;;;1.27;0.80;;;24.40;46.30;;;;;;5018755;28;20030;-63
2022/05/05 02:52:32;;;;;;;1.85;0.90;;;24.40;46.30;;;;;;5023096;28;20029;-66
2022/05/05 02:54:58;;;;;;;1.65;0.80;;;24.40;46.30;;;;;;5020419;28;20113;-64
2022/05/05 02:57:24;;;;;;;1.60;0.80;;;24.30;46.20;;;;;;5016493;28;20175;-67
2022/05/05 02:59:54;;;;;;;1.58;0.80;;;24.30;46.20;;;;;;5019017;28;20400;-65
2022/05/05 03:02:20;;;;;;;1.50;0.90;;;24.30;46.20;;;;;;5019457;28;20099;-66
2022/05/05 03:04:46;;;;;;;1.17;0.80;;;24.30;46.20;;;;;;5017609;28;20044;-64
2022/05/05 03:07:12;;;;;;;1.05;0.77;;;24.30;46.20;;;;;;5018258;28;20056;-64
2022/05/05 03:09:39;;;;;;;1.25;0.90;;;24.30;46.20;;;;;;5022329;28;20502;-64
2022/05/05 03:12:05;;;;;;;2.08;1.00;;;24.30;46.20;;;;;;5018470;28;20099;-64
2022/05/05 03:14:31;;;;;;;1.08;0.68;;;24.30;46.20;;;;;;5018188;28;20033;-67
2022/05/05 03:16:57;;;;;;;0.68;0.60;;;24.30;46.20;;;;;;5016892;28;20037;-64
2022/05/05 03:19:22;;;;;;;1.55;0.80;;;24.30;46.20;;;;;;5008383;28;20029;-64
2022/05/05 03:21:48;;;;;;;1.13;0.80;;;24.30;46.20;;;;;;5019550;28;20075;-62
2022/05/05 03:24:13;;;;;;;1.00;0.80;;;24.30;46.20;;;;;;5018426;28;20111;-64
2022/05/05 03:26:39;;;;;;;2.22;1.35;;;24.30;46.30;;;;;;5015892;28;20135;-64
2022/05/05 03:29:05;;;;;;;1.25;1.00;;;24.30;46.30;;;;;;5017426;28;20095;-68
2022/05/05 03:31:32;;;;;;;0.80;0.60;;;24.30;46.20;;;;;;5018105;28;20030;-62
2022/05/05 03:33:58;;;;;;;0.95;0.70;;;24.30;46.30;;;;;;5014601;28;20025;-64
2022/05/05 03:36:23;;;;;;;1.08;0.77;;;24.30;46.30;;;;;;5016678;28;20040;-65
2022/05/05 03:38:50;;;;;;;1.85;0.85;;;24.20;46.20;;;;;;5020863;28;20041;-64
2022/05/05 03:41:15;;;;;;;1.27;0.82;;;24.20;46.20;;;;;;5018239;28;20048;-66
2022/05/05 03:43:41;;;;;;;0.93;0.82;;;24.20;46.20;;;;;;5017973;28;20528;-63
2022/05/05 03:46:07;;;;;;;1.00;0.80;;;24.20;46.20;;;;;;5019485;28;20029;-65
2022/05/05 03:48:33;;;;;;;1.38;0.90;;;24.20;46.20;;;;;;5018366;28;20036;-65
2022/05/05 03:50:59;;;;;;;0.93;0.73;;;24.20;46.20;;;;;;5024526;28;20029;-65
2022/05/05 03:53:24;;;;;;;0.85;0.70;;;24.20;46.20;;;;;;5024900;28;20029;-65
2022/05/05 03:55:50;;;;;;;1.30;0.80;;;24.20;46.20;;;;;;5025463;28;20144;-69
2022/05/05 03:58:16;;;;;;;1.20;0.80;;;24.20;46.20;;;;;;5013994;28;20028;-64
2022/05/05 04:00:42;;;;;;;1.38;0.80;;;24.20;46.20;;;;;;5026595;28;20045;-68
2022/05/05 04:05:52;;;;;;;0.95;0.73;;;24.10;46.20;;;;;;5023217;28;20043;-64
2022/05/05 04:08:18;;;;;;;0.90;0.70;;;24.10;46.30;;;;;;5024673;28;20029;-65
2022/05/05 04:10:43;;;;;;;1.40;0.80;;;24.10;46.30;;;;;;5026834;28;20099;-66
2022/05/05 04:13:09;;;;;;;0.95;0.80;;;24.10;46.30;;;;;;5028704;28;20033;-64
2022/05/05 04:15:35;;;;;;;1.02;0.80;;;24.10;46.30;;;;;;5023761;28;20022;-64
2022/05/05 04:18:01;;;;;;;0.90;0.70;;;24.10;46.30;;;;;;5025096;28;20040;-65
2022/05/05 04:20:27;;;;;;;1.33;0.90;;;24.10;46.30;;;;;;5022549;28;20474;-67
2022/05/05 04:22:53;;;;;;;1.00;0.70;;;24.10;46.30;;;;;;5024366;28;20033;-69
2022/05/05 04:25:19;;;;;;;0.98;0.80;;;24.10;46.30;;;;;;5024378;28;20033;-68
2022/05/05 04:27:45;;;;;;;0.90;0.70;;;24.10;46.30;;;;;;5023076;28;20347;-66
2022/05/05 04:30:16;;;;;;;1.20;0.77;;;24.10;46.30;;;;;;5021874;28;20018;-65
2022/05/05 04:32:42;;;;;;;1.67;0.90;;;24.10;46.30;;;;;;5023739;28;20372;-67
2022/05/05 04:35:08;;;;;;;1.40;0.80;;;24.10;46.30;;;;;;5024470;28;20036;-66
2022/05/05 04:37:34;;;;;;;0.95;0.73;;;24.10;46.30;;;;;;5022166;28;20497;-69
2022/05/05 04:39:59;;;;;;;1.20;0.80;;;24.10;46.40;;;;;;5024740;28;20087;-64
2022/05/05 04:42:25;;;;;;;1.42;0.80;;;24.10;46.30;;;;;;5026892;28;20142;-64
2022/05/05 04:44:51;;;;;;;1.40;0.80;;;24.10;46.30;;;;;;5024708;28;20116;-64
2022/05/05 04:47:17;;;;;;;0.60;0.60;;;24.10;46.40;;;;;;5026877;28;20121;-67
2022/05/05 04:49:43;;;;;;;0.90;0.70;;;24.00;46.30;;;;;;5021359;28;20420;-70
2022/05/05 04:52:08;;;;;;;1.25;0.80;;;24.00;46.30;;;;;;5021637;28;20028;-65
2022/05/05 04:54:34;;;;;;;1.10;0.75;;;24.00;46.30;;;;;;5024761;28;20109;-65
2022/05/05 04:57:00;;;;;;;0.98;0.60;;;24.00;46.30;;;;;;5019696;28;20484;-66
2022/05/05 04:59:26;;;;;;;1.58;0.90;;;24.00;46.30;;;;;;5021455;28;20032;-65
2022/05/05 05:01:52;;;;;;;1.75;0.95;;;24.00;46.30;;;;;;5021478;28;20408;-63
2022/05/05 05:04:17;;;;;;;2.60;0.80;;;24.00;46.30;;;;;;5019545;28;20033;-65
2022/05/05 05:06:43;;;;;;;1.10;0.70;;;24.00;46.40;;;;;;5019145;28;20041;-63
2022/05/05 05:09:09;;;;;;;1.27;0.82;;;24.00;46.40;;;;;;5019159;28;20029;-64
2022/05/05 05:11:35;;;;;;;0.80;0.70;;;24.00;46.40;;;;;;5025721;28;20032;-62
2022/05/05 05:14:01;;;;;;;1.23;0.75;;;23.90;46.30;;;;;;5026253;28;20059;-62
2022/05/05 05:16:26;;;;;;;1.25;0.70;;;24.00;46.50;;;;;;5023195;28;20438;-63
2022/05/05 05:18:53;;;;;;;1.10;0.80;;;24.00;46.50;;;;;;5022468;28;20045;-64
2022/05/05 05:21:22;;;;;;;1.50;0.80;;;24.00;46.70;;;;;;5021012;28;20029;-64
2022/05/05 05:23:48;;;;;;;1.70;0.88;;;24.00;46.60;;;;;;5023830;28;20156;-67
2022/05/05 05:26:14;;;;;;;0.98;0.70;;;24.10;46.50;;;;;;5020072;28;20070;-67
2022/05/05 05:28:40;;;;;;;1.67;1.00;;;24.20;46.40;;;;;;5022735;28;20104;-64
2022/05/05 05:31:06;;;;;;;1.50;0.90;;;24.30;46.20;;;;;;5024022;28;20041;-68
2022/05/05 05:33:32;;;;;;;1.98;0.90;;;24.40;46.00;;;;;;5023332;28;20029;-64
2022/05/05 05:35:57;;;;;;;1.27;0.85;;;24.50;45.80;;;;;;5024785;28;20319;-67
2022/05/05 05:38:23;;;;;;;1.60;1.00;;;24.60;45.70;;;;;;5026948;28;20040;-62
2022/05/05 05:40:49;;;;;;;1.40;1.00;;;24.70;45.60;;;;;;5026144;28;20044;-62
2022/05/05 05:43:15;;;;;;;1.75;0.93;;;24.80;45.30;;;;;;5023238;28;20033;-64
2022/05/05 05:45:40;;;;;;;1.27;0.90;;;24.90;45.70;;;;;;5023467;28;20117;-64
2022/05/05 05:48:06;;;;;;;1.60;0.90;;;24.90;44.90;;;;;;5023226;28;20064;-67
2022/05/05 05:50:32;;;;;;;0.93;0.80;;;24.90;45.00;;;;;;5021575;28;20025;-67
2022/05/05 05:52:59;;;;;;;1.50;1.00;;;24.90;45.10;;;;;;5024993;28;20051;-68
2022/05/05 05:55:24;;;;;;;1.40;0.90;;;24.90;45.10;;;;;;5023425;28;20343;-62
2022/05/05 05:57:50;;;;;;;1.83;0.90;;;24.90;45.10;;;;;;5026017;28;20029;-64
2022/05/05 06:00:16;;;;;;;1.65;0.80;;;24.90;45.10;;;;;;5024174;28;20388;-68
2022/05/05 06:05:26;;;;;;;1.00;0.77;;;24.90;45.10;;;;;;5023049;28;20036;-66
2022/05/05 06:07:56;;;;;;;0.98;0.77;;;24.90;45.00;;;;;;5022453;28;20393;-69
2022/05/05 06:10:22;;;;;;;1.65;0.85;;;24.90;45.00;;;;;;5023547;28;20022;-65
2022/05/05 06:12:48;;;;;;;1.42;0.85;;;25.00;45.10;;;;;;5022979;28;20040;-64
2022/05/05 06:15:14;;;;;;;1.00;0.80;;;25.00;45.00;;;;;;5024935;28;20021;-66
2022/05/05 06:17:40;;;;;;;1.50;0.80;;;25.00;45.00;;;;;;5022258;28;20576;-64
2022/05/05 06:20:06;;;;;;;1.50;0.90;;;25.00;45.00;;;;;;5021442;28;20044;-65
2022/05/05 06:22:34;;;;;;;1.02;0.73;;;25.00;44.90;;;;;;5022904;28;20021;-68
2022/05/05 06:24:59;;;;;;;1.60;0.80;;;25.00;44.90;;;;;;5021754;28;20029;-68
2022/05/05 06:27:25;;;;;;;1.27;0.82;;;25.00;44.90;;;;;;5019832;28;20101;-63
2022/05/05 06:29:51;;;;;;;1.48;0.90;;;25.10;45.00;;;;;;5022311;28;20163;-62
2022/05/05 06:32:19;;;;;;;1.27;0.88;;;25.10;44.90;;;;;;5022309;28;20540;-63
2022/05/05 06:34:45;;;;;;;1.67;0.90;;;25.10;45.00;;;;;;5020241;28;20373;-67
2022/05/05 06:37:12;;;;;;;1.38;1.00;;;25.10;44.90;;;;;;5021907;28;20087;-62
2022/05/05 06:39:37;;;;;;;1.05;0.80;;;25.10;44.90;;;;;;5011197;28;20386;-64
2022/05/05 06:42:04;;;;;;;0.98;0.88;;;25.10;44.80;;;;;;5021419;28;20029;-68
2022/05/05 06:44:29;;;;;;;0.93;0.73;;;25.10;44.80;;;;;;5023052;28;20029;-66
2022/05/05 06:46:55;;;;;;;1.13;0.90;;;25.10;44.80;;;;;;5004789;28;20512;-65
2022/05/05 06:49:22;;;;;;;1.33;0.90;;;25.10;44.80;;;;;;5018339;28;20040;-67
2022/05/05 06:51:49;;;;;;;1.10;0.90;;;25.10;44.80;;;;;;5022256;28;20135;-64
2022/05/05 06:54:14;;;;;;;0.70;0.70;;;25.10;44.70;;;;;;5018829;28;20366;-69
2022/05/05 06:56:40;;;;;;;1.10;0.80;;;25.20;44.80;;;;;;5021080;28;20063;-64
2022/05/05 06:59:05;;;;;;;1.20;0.80;;;25.10;44.70;;;;;;5019871;28;20033;-64
2022/05/05 07:06:59;;;;;;;0.98;0.80;;;25.20;44.80;;;;;;5023939;28;20400;-64
2022/05/05 07:12:09;;;;;;;0.95;0.80;;;25.20;44.80;;;;;;5018513;28;20180;-64
2022/05/05 07:14:35;;;;;;;0.95;0.80;;;25.20;44.70;;;;;;5019709;28;20525;-64
2022/05/05 07:17:00;;;;;;;1.73;0.82;;;25.20;44.70;;;;;;5020856;28;20052;-63
2022/05/05 07:19:26;;;;;;;1.27;0.90;;;25.20;44.70;;;;;;5016846;28;20043;-64
2022/05/05 07:21:52;;;;;;;1.33;0.80;;;25.20;44.70;;;;;;5018273;28;20025;-68
2022/05/05 07:24:17;;;;;;;2.15;0.85;;;25.20;44.60;;;;;;5020910;28;20037;-63
2022/05/05 07:26:43;;;;;;;0.85;0.70;;;25.20;44.60;;;;;;5021862;28;20569;-64
2022/05/05 07:29:08;;;;;;;0.98;0.80;;;25.20;44.60;;;;;;5021506;28;20029;-61
2022/05/05 07:31:34;;;;;;;1.02;0.82;;;25.30;44.70;;;;;;5018527;28;20515;-64
2022/05/05 07:34:00;;;;;;;1.23;0.80;;;25.30;44.70;;;;;;5017946;28;20144;-63
2022/05/05 07:36:26;;;;;;;0.77;0.77;;;25.30;44.70;;;;;;5021810;28;20101;-68
2022/05/05 07:38:51;;;;;;;1.02;0.80;;;25.30;44.70;;;;;;5021882;28;20632;-64
2022/05/05 07:41:17;;;;;;;0.85;0.77;;;25.20;44.60;;;;;;5021468;28;20049;-62
2022/05/05 07:43:43;;;;;;;1.38;0.93;;;25.30;44.70;;;;;;5021641;28;20037;-69
2022/05/05 07:46:08;;;;;;;1.17;0.80;;;25.30;44.70;;;;;;5021016;28;20098;-62
2022/05/05 07:48:34;;;;;;;1.73;0.80;;;25.30;44.70;;;;;;5018797;28;20163;-64
2022/05/05 07:51:00;;;;;;;1.08;0.80;;;25.30;44.70;;;;;;5021936;28;20111;-64
2022/05/05 07:53:25;;;;;;;0.98;0.75;;;25.30;44.70;;;;;;5021100;28;20033;-68
2022/05/05 07:55:51;;;;;;;0.95;0.73;;;25.30;44.70;;;;;;5020957;28;20090;-63
2022/05/05 07:58:16;;;;;;;1.00;0.80;;;25.30;44.70;;;;;;5020132;28;20112;-67
2022/05/05 08:00:42;;;;;;;1.58;0.80;;;25.30;44.70;;;;;;5018403;28;20045;-65
2022/05/05 08:03:08;;;;;;;0.93;0.80;;;25.30;44.80;;;;;;5016537;28;20039;-64
2022/05/05 08:05:34;;;;;;;0.90;0.80;;;25.30;44.70;;;;;;5019127;28;20059;-66
2022/05/05 08:07:59;;;;;;;1.10;0.80;;;25.30;44.70;;;;;;5018693;28;20769;-66
2022/05/05 08:10:29;;;;;;;1.67;0.80;;;25.30;44.60;;;;;;5017476;28;20055;-66
2022/05/05 08:12:55;;;;;;;1.20;0.80;;;25.30;44.60;;;;;;5019420;28;20044;-64
2022/05/05 08:15:21;;;;;;;1.25;0.80;;;25.30;44.60;;;;;;5018984;28;20033;-66
2022/05/05 08:17:47;;;;;;;1.10;0.80;;;25.30;44.60;;;;;;5018238;28;20900;-65
2022/05/05 08:20:14;;;;;;;1.25;0.90;;;25.40;44.70;;;;;;5016936;28;20025;-67
2022/05/05 08:22:40;;;;;;;1.02;0.75;;;25.30;44.60;;;;;;5018867;28;20056;-67
2022/05/05 08:30:34;;;;;;;1.85;0.85;;;25.40;44.70;;;;;;5021897;28;20048;-69
2022/05/05 08:33:00;;;;;;;0.95;0.80;;;25.40;44.70;;;;;;5023345;28;20025;-67
2022/05/05 08:35:27;;;;;;;1.10;0.80;;;25.40;44.70;;;;;;5021607;28;20120;-64
2022/05/05 08:37:53;;;;;;;0.95;0.80;;;25.40;44.70;;;;;;5028370;28;20495;-64
2022/05/05 08:40:22;;;;;;;1.65;1.00;;;25.40;44.70;;;;;;5022826;28;20033;-67
2022/05/05 08:42:48;;;;;;;0.85;0.70;;;25.40;44.70;;;;;;5021701;28;20044;-67
2022/05/05 08:45:14;;;;;;;1.10;0.70;;;25.40;44.70;;;;;;5022258;28;20086;-66
2022/05/05 08:47:42;;;;;;;1.10;0.80;;;25.40;44.80;;;;;;5017372;28;20036;-66
2022/05/05 08:50:10;;;;;;;1.15;0.80;;;25.40;45.30;;;;;;5019170;28;20032;-65
2022/05/05 08:52:42;;;;;;;1.50;0.93;;;25.40;44.70;;;;;;5022098;28;20091;-70
2022/05/05 08:55:13;;;;;;;2.33;0.95;;;25.40;44.70;;;;;;5021303;28;20112;-67
2022/05/05 08:57:39;;;;;;;0.95;0.80;;;25.40;44.70;;;;;;5022678;28;20028;-65
2022/05/05 09:00:05;;;;;;;1.48;0.82;;;25.40;44.70;;;;;;5014326;28;20037;-67
2022/05/05 09:02:31;;;;;;;0.88;0.77;;;25.40;44.70;;;;;;5021260;28;20347;-70
2022/05/05 09:04:57;;;;;;;1.00;0.80;;;25.40;44.70;;;;;;5020871;28;20075;-66
2022/05/05 09:07:42;;;;;;;1.15;0.80;;;25.40;44.70;;;;;;5020512;28;20033;-68
2022/05/05 09:10:08;;;;;;;1.00;0.80;;;25.40;44.70;;;;;;5022508;28;20040;-67
2022/05/05 09:12:35;;;;;;;1.55;0.77;;;25.40;44.70;;;;;;5019445;28;20040;-71
2022/05/05 09:15:07;;;;;;;1.10;0.80;;;25.40;44.70;;;;;;5019534;28;20025;-66
2022/05/05 09:17:35;;;;;;;2.00;0.90;;;25.40;44.70;;;;;;5021604;28;20116;-67
2022/05/05 09:20:03;;;;;;;1.33;0.80;;;25.40;44.70;;;;;;5021028;28;20107;-67
2022/05/05 09:22:29;;;;;;;1.00;0.75;;;25.40;44.70;;;;;;5002100;28;20064;-66
2022/05/05 09:24:57;;;;;;;1.42;0.80;;;25.40;44.70;;;;;;5019774;28;20048;-67
2022/05/05 09:27:27;;;;;;;1.02;0.80;;;25.40;44.70;;;;;;5022831;28;20111;-68
2022/05/05 09:30:02;;;;;;;1.45;0.80;;;25.40;44.70;;;;;;5020377;28;20029;-71
2022/05/05 09:32:40;;;;;;;1.13;0.80;;;25.50;44.70;;;;;;5023131;28;20087;-71
2022/05/05 09:35:09;;;;;;;0.73;0.70;;;25.50;44.70;;;;;;5020193;28;20032;-66
2022/05/05 09:37:36;;;;;;;1.40;0.82;;;25.50;44.60;;;;;;5023248;28;20454;-65
2022/05/05 09:40:06;;;;;;;1.63;0.80;;;25.50;44.70;;;;;;5024606;28;20021;-66
2022/05/05 09:42:34;;;;;;;0.98;0.88;;;25.50;44.70;;;;;;5022062;28;20036;-66
2022/05/05 09:45:33;;;;;;;1.05;0.82;;;25.50;44.70;;;;;;5022534;28;20036;-66
2022/05/05 09:48:01;;;;;;;1.00;0.80;;;25.50;44.80;;;;;;4999310;28;20045;-68
2022/05/05 09:50:32;;;;;;;1.73;0.80;;;25.50;44.70;;;;;;5020785;28;20418;-64
2022/05/05 09:58:36;;;;;;;0.77;0.70;;;25.50;44.70;;;;;;5022446;28;20124;-66
2022/05/05 10:01:10;;;;;;;1.25;0.73;;;25.60;44.80;;;;;;5013659;28;20111;-64
2022/05/05 10:04:03;;;;;;;1.00;0.80;;;25.60;44.90;;;;;;5018655;28;20033;-64
2022/05/05 10:06:32;;;;;;;1.17;0.80;;;25.60;44.80;;;;;;5002823;28;20041;-70
2022/05/05 10:09:01;;;;;;;0.98;0.70;;;25.60;44.80;;;;;;5022208;28;20032;-70
2022/05/05 10:11:27;;;;;;;0.82;0.80;;;25.60;44.80;;;;;;5021522;28;20029;-66
2022/05/05 10:13:56;;;;;;;1.00;0.75;;;25.60;44.90;;;;;;5021637;28;20029;-72
2022/05/05 10:16:22;;;;;;;1.05;0.70;;;25.60;44.90;;;;;;5021566;28;20135;-65
2022/05/05 10:18:48;;;;;;;0.90;0.80;;;25.60;44.80;;;;;;5018078;28;20029;-66
2022/05/05 10:21:26;;;;;;;0.80;0.75;;;25.60;44.80;;;;;;5021473;28;20487;-69
2022/05/05 10:24:06;;;;;;;1.67;0.90;;;25.60;44.90;;;;;;5020510;28;20045;-64
2022/05/05 10:26:32;;;;;;;1.20;0.80;;;25.60;44.90;;;;;;5023444;28;20052;-71
2022/05/05 10:28:58;;;;;;;1.08;0.80;;;25.60;44.80;;;;;;5018917;28;20462;-66
2022/05/05 10:31:30;;;;;;;1.13;0.90;;;25.60;44.60;;;;;;5016265;28;20044;-64
2022/05/05 10:34:02;;;;;;;1.10;0.90;;;25.60;44.50;;;;;;5007771;28;20037;-71
2022/05/05 10:36:29;;;;;;;1.00;0.80;;;25.60;44.50;;;;;;5019110;28;20024;-69
2022/05/05 10:38:55;;;;;;;2.15;1.00;;;25.60;44.50;;;;;;5023283;28;20434;-65
2022/05/05 10:41:34;;;;;;;0.88;0.80;;;25.60;44.50;;;;;;5021756;28;20029;-66
2022/05/05 10:44:19;;;;;;;1.23;0.80;;;25.60;44.40;;;;;;5007630;28;20155;-65
2022/05/05 10:46:54;;;;;;;1.30;1.00;;;25.60;45.00;;;;;;5027756;28;20124;-66
2022/05/05 10:52:09;;;;;;;0.82;0.70;;;25.60;44.60;;;;;;5016130;28;20065;-64
2022/05/05 10:54:40;;;;;;;0.90;0.73;;;25.60;44.60;;;;;;5019475;28;20116;-66
2022/05/05 10:57:39;;;;;;;1.33;0.90;;;25.60;44.70;;;;;;5006078;28;20111;-64
2022/05/05 11:00:08;;;;;;;1.38;0.80;;;25.60;44.60;;;;;;5009713;28;20120;-62
2022/05/05 11:02:35;;;;;;;1.08;0.82;;;25.60;44.60;;;;;;5016690;28;20038;-68
2022/05/05 11:05:30;;;;;;;1.00;0.80;;;25.60;44.70;;;;;;5018349;28;20108;-63
2022/05/05 11:08:08;;;;;;;1.30;0.90;;;25.60;44.60;;;;;;5021618;28;20510;-65
2022/05/05 11:13:40;;;;;;;1.40;0.90;;;25.60;44.80;;;;;;5020544;28;20381;-62
2022/05/05 11:22:12;;;;;;;1.08;0.90;;;25.70;45.00;;;;;;5018164;28;20507;-64
2022/05/05 11:24:39;;;;;;;1.02;0.82;;;25.70;44.90;;;;;;5020838;28;20082;-64
2022/05/05 11:27:11;;;;;;;0.80;0.70;;;25.70;44.90;;;;;;5019005;28;20503;-64
2022/05/05 11:29:36;;;;;;;0.80;0.77;;;25.70;44.90;;;;;;5019010;28;20056;-65
2022/05/05 11:32:05;;;;;;;1.08;0.90;;;25.70;44.90;;;;;;4999261;28;20081;-67
2022/05/05 11:34:34;;;;;;;0.97;0.80;;;25.70;44.90;;;;;;5017065;28;20493;-63
2022/05/05 11:37:00;;;;;;;1.02;0.82;;;25.70;44.90;;;;;;5019078;28;20120;-62
2022/05/05 11:39:30;;;;;;;1.17;0.90;;;25.70;44.90;;;;;;5016423;28;20058;-67
2022/05/05 11:42:02;;;;;;;0.90;0.80;;;25.70;44.80;;;;;;5018206;28;20062;-66
2022/05/05 11:44:28;;;;;;;0.80;0.80;;;25.80;44.80;;;;;;5019253;28;20449;-63
2022/05/05 11:46:57;;;;;;;1.48;1.00;;;25.70;44.80;;;;;;5017984;28;20029;-61
2022/05/05 11:49:24;;;;;;;0.98;0.88;;;25.80;44.80;;;;;;5016554;28;20035;-62
2022/05/05 11:51:51;;;;;;;0.90;0.80;;;25.80;44.80;;;;;;5019039;28;20116;-63
2022/05/05 11:54:28;;;;;;;1.08;0.90;;;25.80;44.90;;;;;;5020661;28;20132;-63
2022/05/05 11:56:55;;;;;;;1.00;0.90;;;25.80;44.80;;;;;;5001239;28;20049;-61
2022/05/05 12:02:12;;;;;;;1.30;0.80;;;25.80;44.90;;;;;;5018590;28;20078;-62
2022/05/05 12:04:58;;;;;;;0.93;0.80;;;25.80;44.90;;;;;;5019368;28;20036;-66
2022/05/05 12:07:26;;;;;;;1.00;0.90;;;25.80;44.90;;;;;;5021920;28;20140;-65
2022/05/05 12:09:58;;;;;;;1.95;0.80;;;25.90;45.10;;;;;;5020980;28;20475;-65
2022/05/05 12:12:27;;;;;;;1.17;0.80;;;25.90;44.90;;;;;;5022821;28;20041;-63
2022/05/05 12:15:05;;;;;;;1.30;0.90;;;25.90;45.00;;;;;;5021621;28;20500;-62
2022/05/05 12:17:41;;;;;;;1.00;0.90;;;25.90;44.90;;;;;;5020927;28;20139;-65
2022/05/05 12:20:09;;;;;;;0.85;0.75;;;25.90;44.80;;;;;;5024568;28;20515;-64
2022/05/05 12:22:40;;;;;;;0.68;0.68;;;25.90;44.90;;;;;;5021008;28;20035;-64
2022/05/05 12:25:18;;;;;;;0.95;0.85;;;25.90;45.10;;;;;;5020998;28;20112;-66
2022/05/05 12:27:58;;;;;;;1.05;0.82;;;25.90;45.10;;;;;;5032096;28;20124;-64
2022/05/05 12:30:43;;;;;;;1.35;0.80;;;25.90;45.10;;;;;;5038548;28;20041;-65
2022/05/05 12:33:15;;;;;;;0.77;0.70;;;26.00;45.10;;;;;;5034847;28;20047;-63
2022/05/05 12:35:43;;;;;;;1.17;0.93;;;26.00;45.10;;;;;;5035205;28;20044;-63
2022/05/05 12:38:11;;;;;;;2.05;0.90;;;26.00;45.10;;;;;;5026908;28;20059;-63
2022/05/05 12:40:40;;;;;;;1.45;0.80;;;26.00;45.00;;;;;;5021958;28;20098;-66
2022/05/05 12:43:21;;;;;;;1.33;0.80;;;26.00;45.00;;;;;;5023386;28;20817;-66
2022/05/05 12:45:48;;;;;;;1.45;0.90;;;26.00;45.00;;;;;;5023714;28;20032;-64
2022/05/05 12:48:13;;;;;;;1.30;1.00;;;26.00;45.00;;;;;;5020023;28;20534;-62
2022/05/05 12:50:43;;;;;;;1.00;0.90;;;26.00;45.00;;;;;;5020921;28;20060;-68
2022/05/05 13:01:31;;;;;;;1.20;0.82;;;26.10;45.00;;;;;;5022349;28;20350;-64
2022/05/05 13:04:06;;;;;;;1.20;0.90;;;26.10;44.90;;;;;;5018574;28;20553;-63
2022/05/05 13:06:32;;;;;;;1.77;0.88;;;26.10;45.00;;;;;;5009808;28;20025;-66
2022/05/05 13:08:58;;;;;;;1.00;0.70;;;26.10;45.00;;;;;;5022589;28;20021;-66
2022/05/05 13:11:25;;;;;;;1.10;1.00;;;26.10;45.00;;;;;;5022471;28;20040;-64
2022/05/05 13:13:51;;;;;;;1.05;0.80;;;26.20;45.10;;;;;;5018874;28;20037;-65
2022/05/05 13:16:17;;;;;;;1.05;0.90;;;26.20;45.10;;;;;;5022795;28;20040;-68
2022/05/05 13:18:43;;;;;;;1.40;0.90;;;26.20;45.00;;;;;;5019298;28;20036;-63
2022/05/05 13:21:09;;;;;;;0.77;0.75;;;26.20;45.20;;;;;;5022508;28;20033;-63
2022/05/05 13:23:35;;;;;;;0.80;0.70;;;26.20;45.20;;;;;;5015509;28;20033;-66
2022/05/05 13:26:03;;;;;;;0.80;0.80;;;26.20;45.20;;;;;;5020866;28;20043;-65
2022/05/05 13:28:34;;;;;;;1.50;0.90;;;26.20;45.20;;;;;;5019158;28;20030;-63
2022/05/05 13:30:59;;;;;;;1.23;0.90;;;26.20;45.10;;;;;;5020004;28;20033;-63
2022/05/05 13:33:25;;;;;;;1.08;0.90;;;26.20;45.10;;;;;;5017927;28;20068;-63
2022/05/05 13:35:51;;;;;;;1.33;0.90;;;26.20;45.10;;;;;;5021463;28;20445;-63
2022/05/05 13:38:19;;;;;;;1.00;0.80;;;26.20;45.10;;;;;;5020932;28;20097;-65
2022/05/05 13:40:45;;;;;;;1.00;0.90;;;26.30;45.20;;;;;;5022369;28;20469;-63
2022/05/05 13:43:10;;;;;;;2.05;1.05;;;26.30;45.10;;;;;;5020467;28;20036;-68
2022/05/05 13:45:36;;;;;;;1.15;0.90;;;26.30;45.20;;;;;;5018272;28;20112;-69
2022/05/05 13:48:02;;;;;;;1.08;0.90;;;26.30;45.10;;;;;;5017845;28;20032;-68